Map

Track Data

SID SEASON NUMBER BASIN SUBBASIN NAME ISO_TIME NATURE LAT LON WMO_WIND WMO_PRES WMO_AGENCY TRACK_TYPE DIST2LAND LANDFALL IFLAG USA_AGENCY USA_ATCF_ID USA_LAT USA_LON USA_RECORD USA_STATUS USA_WIND USA_PRES USA_SSHS USA_R34_NE USA_R34_SE USA_R34_SW USA_R34_NW USA_R50_NE USA_R50_SE USA_R50_SW USA_R50_NW USA_R64_NE USA_R64_SE USA_R64_SW USA_R64_NW USA_POCI USA_ROCI USA_RMW USA_EYE TOKYO_LAT TOKYO_LON TOKYO_GRADE TOKYO_WIND TOKYO_PRES TOKYO_R50_DIR TOKYO_R50_LONG TOKYO_R50_SHORT TOKYO_R30_DIR TOKYO_R30_LONG TOKYO_R30_SHORT TOKYO_LAND CMA_LAT CMA_LON CMA_CAT CMA_WIND CMA_PRES HKO_LAT HKO_LON HKO_CAT HKO_WIND HKO_PRES NEWDELHI_LAT NEWDELHI_LON NEWDELHI_GRADE NEWDELHI_WIND NEWDELHI_PRES NEWDELHI_CI NEWDELHI_DP NEWDELHI_POCI REUNION_LAT REUNION_LON REUNION_TYPE REUNION_WIND REUNION_PRES REUNION_TNUM REUNION_CI REUNION_RMW REUNION_R34_NE REUNION_R34_SE REUNION_R34_SW REUNION_R34_NW REUNION_R50_NE REUNION_R50_SE REUNION_R50_SW REUNION_R50_NW REUNION_R64_NE REUNION_R64_SE REUNION_R64_SW REUNION_R64_NW BOM_LAT BOM_LON BOM_TYPE BOM_WIND BOM_PRES BOM_TNUM BOM_CI BOM_RMW BOM_R34_NE BOM_R34_SE BOM_R34_SW BOM_R34_NW BOM_R50_NE BOM_R50_SE BOM_R50_SW BOM_R50_NW BOM_R64_NE BOM_R64_SE BOM_R64_SW BOM_R64_NW BOM_ROCI BOM_POCI BOM_EYE BOM_POS_METHOD BOM_PRES_METHOD NADI_LAT NADI_LON NADI_CAT NADI_WIND NADI_PRES WELLINGTON_LAT WELLINGTON_LON WELLINGTON_WIND WELLINGTON_PRES DS824_LAT DS824_LON DS824_STAGE DS824_WIND DS824_PRES TD9636_LAT TD9636_LON TD9636_STAGE TD9636_WIND TD9636_PRES TD9635_LAT TD9635_LON TD9635_WIND TD9635_PRES TD9635_ROCI NEUMANN_LAT NEUMANN_LON NEUMANN_CLASS NEUMANN_WIND NEUMANN_PRES MLC_LAT MLC_LON MLC_CLASS MLC_WIND MLC_PRES USA_GUST BOM_GUST BOM_GUST_PER REUNION_GUST REUNION_GUST_PER USA_SEAHGT USA_SEARAD_NE USA_SEARAD_SE USA_SEARAD_SW USA_SEARAD_NW STORM_SPEED STORM_DIR
1916207N25139 1916 35 WP MM NOT_NAMED 1916-07-25 10:00:00 NR 24.7000 139.000 main 1019 1019 __________O___ -1 24.7000 139.000 4 1 0
1916207N25139 1916 35 WP MM NOT_NAMED 1916-07-25 12:00:00 NR 24.6745 138.995 main 1019 1019 __________P___ -1 24.6745 138.995 4 1 0
1916207N25139 1916 35 WP MM NOT_NAMED 1916-07-25 15:00:00 NR 24.6521 139.026 main 1019 1019 __________P___ -1 24.6521 139.026 4 1 92
1916207N25139 1916 35 WP MM NOT_NAMED 1916-07-25 18:00:00 NR 24.6705 139.159 main 1025 1024 __________P___ -1 24.6705 139.159 4 4 75
1916207N25139 1916 35 WP MM NOT_NAMED 1916-07-25 21:00:00 NR 24.7538 139.455 main 1024 1024 __________P___ -1 24.7538 139.455 4 6 72
1916207N25139 1916 35 WP MM NOT_NAMED 1916-07-25 22:00:00 NR 24.8000 139.600 main 1028 1024 __________O___ -1 24.8000 139.600 4 10 70
1916207N25139 1916 35 WP MM NOT_NAMED 1916-07-26 00:00:00 NR 24.9231 139.967 main 1032 1023 __________P___ -1 24.9231 139.967 4 12 69
1916207N25139 1916 35 WP MM NOT_NAMED 1916-07-26 03:00:00 NR 25.1761 140.663 main 1030 1029 __________P___ -1 25.1761 140.663 4 15 67
1916207N25139 1916 35 WP MM NOT_NAMED 1916-07-26 06:00:00 NR 25.4959 141.455 main 1039 1027 __________P___ -1 25.4959 141.455 4 16 64
1916207N25139 1916 35 WP MM NOT_NAMED 1916-07-26 09:00:00 NR 25.8672 142.250 main 1027 1019 __________P___ -1 25.8672 142.250 4 16 62
1916207N25139 1916 35 WP MM NOT_NAMED 1916-07-26 10:00:00 NR 26.0000 142.500 main 1022 1001 __________O___ -1 26.0000 142.500 4 15 57
1916207N25139 1916 35 WP MM NOT_NAMED 1916-07-26 12:00:00 NR 26.2891 142.963 main 1004 969 __________P___ -1 26.2891 142.963 4 15 53
1916207N25139 1916 35 WP MM NOT_NAMED 1916-07-26 15:00:00 NR 26.7618 143.622 main 969 947 __________P___ -1 26.7618 143.622 4 15 49
1916207N25139 1916 35 WP MM NOT_NAMED 1916-07-26 18:00:00 NR 27.2388 144.205 main 951 922 __________P___ -1 27.2388 144.205 4 13 46
1916207N25139 1916 35 WP MM NOT_NAMED 1916-07-26 21:00:00 NR 27.6729 144.675 main 922 917 __________P___ -1 27.6729 144.675 4 12 43
1916207N25139 1916 35 WP MM NOT_NAMED 1916-07-26 22:00:00 NR 27.8000 144.800 main 917 908 __________O___ -1 27.8000 144.800 4 9 42
1916207N25139 1916 35 WP MM NOT_NAMED 1916-07-27 00:00:00 NR 27.9924 145.004 main 908 894 __________P___ -1 27.9924 145.004 4 7 39
1916207N25139 1916 35 WP MM NOT_NAMED 1916-07-27 03:00:00 NR 28.2251 145.194 main 899 886 __________P___ -1 28.2251 145.194 4 5 29
1916207N25139 1916 35 WP MM NOT_NAMED 1916-07-27 06:00:00 NR 28.4239 145.281 main 886 867 __________P___ -1 28.4239 145.281 4 4 14
1916207N25139 1916 35 WP MM NOT_NAMED 1916-07-27 09:00:00 NR 28.6257 145.301 main 867 858 __________P___ -1 28.6257 145.301 4 4 4
1916207N25139 1916 35 WP MM NOT_NAMED 1916-07-27 10:00:00 NR 28.7000 145.300 main 858 840 __________O___ -1 28.7000 145.300 4 5 353
1916207N25139 1916 35 WP MM NOT_NAMED 1916-07-27 12:00:00 NR 28.8648 145.293 main 840 821 __________P___ -1 28.8648 145.293 4 5 356
1916207N25139 1916 35 WP MM NOT_NAMED 1916-07-27 15:00:00 NR 29.1468 145.273 main 821 778 __________P___ -1 29.1468 145.273 4 6 356
1916207N25139 1916 35 WP MM NOT_NAMED 1916-07-27 18:00:00 NR 29.4591 145.245 main 778 751 __________P___ -1 29.4591 145.245 4 6 355
1916207N25139 1916 35 WP MM NOT_NAMED 1916-07-27 21:00:00 NR 29.7886 145.212 main 751 742 __________P___ -1 29.7886 145.212 4 7 355
1916207N25139 1916 35 WP MM NOT_NAMED 1916-07-27 22:00:00 NR 29.9000 145.200 main 742 __________O___ -1 29.9000 145.200 7 7 355

Digital Typhoon Data and Search

About IBTrACS Database

This database is a web-friendly format of International Best Track Archive for Climate Stewardship (IBTrACS), a global best track data archive curated by NOAA dating back to 1842.

Updated: 2021-10-08